Tamuín, SLP, Mexico
Current Conditions -  °F | °C
As of 10:41 PM on Saturday 25 Oct 2014 (Local Time) from MMTM Reporting Station
Clear Clear  
Wind Chill: 75°   Ceiling: Unl
Heat Index: 75°   Visibility: 8mi
Dew Point: 66°   Wind: 0mph
Humidity: 73%   Direction: NA
Pressure: 30.11"   Gusts: NA
Location:  22.00694°N, 98.78861°W
Report Text: MMTM 260341Z 00000KT 8SM SKC 24/19 A3011 RMK ST
Loading
Personal Weather Stations






























Interactive Weather Map
Tropical Storm Tracking
New forecast layout! Learn more

10-Day Weather Forecast

Advertisements
Track Severe Weather on mobile